Time;durP1;ratioP1;P1;durP2;ratioP2;P2;SDS_P1;SDS_P2;PMS_P1;PMS_P2;Temp;Humidity;BMP_temperature;BMP_pressure;BME280_temperature;BME280_humidity;BME280_pressure;Samples;Min_cycle;Max_cycle;Signal;HPM_P1;HPM_P2
2023/03/03 00:01:31;;;;;;;86.83;44.53;;;1.90;99.90;;;;;;4968852;28;20063;-72
2023/03/03 00:03:57;;;;;;;84.40;43.03;;;1.90;99.90;;;;;;5011457;28;20072;-72
2023/03/03 00:06:23;;;;;;;75.63;41.63;;;1.90;99.90;;;;;;5009534;28;20124;-75
2023/03/03 00:08:49;;;;;;;77.73;41.80;;;1.80;99.90;;;;;;4952913;28;20135;-73
2023/03/03 00:11:16;;;;;;;74.53;40.30;;;1.90;99.90;;;;;;4994015;28;20076;-74
2023/03/03 00:13:53;;;;;;;79.17;41.20;;;1.80;99.90;;;;;;4996040;28;20176;-74
2023/03/03 00:16:38;;;;;;;82.10;41.20;;;1.90;99.90;;;;;;5007826;28;20073;-74
2023/03/03 00:19:13;;;;;;;78.37;39.57;;;1.80;99.90;;;;;;4992481;28;20049;-74
2023/03/03 00:21:42;;;;;;;77.13;39.33;;;1.90;99.90;;;;;;5011642;28;20348;-74
2023/03/03 00:24:37;;;;;;;88.90;42.03;;;1.80;99.90;;;;;;5007246;28;20421;-74
2023/03/03 00:27:34;;;;;;;80.93;39.37;;;1.90;99.90;;;;;;4981921;28;20058;-73
2023/03/03 00:30:00;;;;;;;85.17;40.83;;;1.80;99.90;;;;;;4977529;28;20059;-74
2023/03/03 00:32:43;;;;;;;88.87;40.90;;;1.80;99.90;;;;;;4970629;28;20518;-74
2023/03/03 00:35:29;;;;;;;85.30;40.37;;;1.80;99.90;;;;;;5003423;28;20061;-73
2023/03/03 00:38:00;;;;;;;78.37;39.57;;;1.80;99.90;;;;;;5002961;28;20183;-73
2023/03/03 00:40:36;;;;;;;90.80;39.87;;;1.80;99.90;;;;;;4991043;28;20392;-73
2023/03/03 00:43:18;;;;;;;96.47;42.67;;;1.80;99.90;;;;;;4991305;28;20403;-74
2023/03/03 00:45:50;;;;;;;104.63;41.40;;;1.80;99.90;;;;;;4989730;28;20148;-74
2023/03/03 00:48:24;;;;;;;95.07;41.27;;;1.80;99.90;;;;;;5006394;28;20466;-74
2023/03/03 00:50:52;;;;;;;98.23;41.40;;;1.80;99.90;;;;;;4990945;28;20056;-74
2023/03/03 00:53:20;;;;;;;129.77;42.80;;;1.80;99.90;;;;;;4989138;28;20049;-75
2023/03/03 00:55:48;;;;;;;103.07;42.57;;;1.80;99.90;;;;;;4992824;28;20400;-75
2023/03/03 00:58:20;;;;;;;90.07;39.33;;;1.90;99.90;;;;;;5006365;28;20746;-75
2023/03/03 01:00:51;;;;;;;103.80;41.40;;;1.80;99.90;;;;;;5024472;28;20409;-75
2023/03/03 01:03:20;;;;;;;104.00;41.33;;;1.80;99.90;;;;;;5006454;28;20054;-75
2023/03/03 01:05:46;;;;;;;109.93;42.47;;;1.90;99.90;;;;;;4989010;28;20705;-74
2023/03/03 01:08:13;;;;;;;124.97;45.43;;;1.80;99.90;;;;;;5003730;28;20416;-74
2023/03/03 01:10:49;;;;;;;157.35;47.10;;;1.80;99.90;;;;;;4993358;28;20524;-75
2023/03/03 01:13:16;;;;;;;148.63;45.73;;;1.90;99.90;;;;;;5002226;28;21146;-75
2023/03/03 01:15:43;;;;;;;136.33;42.67;;;1.90;99.90;;;;;;5003246;28;20165;-75
2023/03/03 01:18:10;;;;;;;112.10;41.73;;;1.90;99.90;;;;;;4987712;28;20079;-74
2023/03/03 01:20:36;;;;;;;271.67;56.45;;;1.90;99.90;;;;;;5004946;28;20057;-75
2023/03/03 01:23:03;;;;;;;158.43;45.10;;;1.90;99.90;;;;;;5016142;28;20081;-75
2023/03/03 01:25:29;;;;;;;194.90;46.90;;;1.90;99.90;;;;;;4989369;28;20107;-75
2023/03/03 01:27:56;;;;;;;158.32;45.95;;;2.00;99.90;;;;;;5023348;28;20523;-75
2023/03/03 01:30:22;;;;;;;193.35;46.10;;;1.90;99.90;;;;;;5006598;28;20056;-75
2023/03/03 01:32:48;;;;;;;120.07;43.80;;;2.00;99.90;;;;;;5003959;28;20081;-75
2023/03/03 01:35:14;;;;;;;320.43;61.40;;;2.00;99.90;;;;;;4988894;28;20224;-74
2023/03/03 01:37:40;;;;;;;226.63;50.50;;;2.00;99.90;;;;;;4973193;28;20595;-75
2023/03/03 01:40:26;;;;;;;155.27;44.43;;;2.00;99.90;;;;;;4961078;28;20238;-74
2023/03/03 01:42:52;;;;;;;200.47;47.73;;;2.00;99.90;;;;;;5006807;28;20049;-74
2023/03/03 01:45:28;;;;;;;108.30;37.60;;;2.00;99.90;;;;;;5005079;28;20046;-74
2023/03/03 01:48:12;;;;;;;100.30;37.07;;;2.00;99.90;;;;;;4988433;28;20084;-74
2023/03/03 01:50:53;;;;;;;125.90;39.40;;;2.10;99.90;;;;;;4995236;28;20061;-74
2023/03/03 01:53:36;;;;;;;115.17;37.50;;;2.10;99.90;;;;;;5004314;28;20114;-74
2023/03/03 01:56:06;;;;;;;154.07;40.57;;;2.10;99.90;;;;;;5007231;28;20081;-75
2023/03/03 01:58:47;;;;;;;147.88;40.00;;;2.10;99.90;;;;;;5020144;28;20057;-75
2023/03/03 02:01:23;;;;;;;146.43;39.55;;;2.10;99.90;;;;;;5003789;28;20069;-74
2023/03/03 02:03:50;;;;;;;113.03;39.67;;;2.10;99.90;;;;;;5020224;28;20513;-74
2023/03/03 02:06:19;;;;;;;139.23;39.07;;;2.10;99.90;;;;;;4989125;28;20684;-75
2023/03/03 02:08:50;;;;;;;133.98;38.92;;;2.10;99.90;;;;;;5006285;28;20552;-74
2023/03/03 02:11:18;;;;;;;123.13;39.88;;;2.10;99.90;;;;;;5005330;28;20103;-75
2023/03/03 02:13:43;;;;;;;176.20;43.60;;;2.10;99.90;;;;;;4978778;28;20460;-74
2023/03/03 02:16:09;;;;;;;106.70;37.95;;;2.10;99.90;;;;;;4991377;28;20050;-74
2023/03/03 02:18:35;;;;;;;188.40;42.40;;;2.10;99.90;;;;;;4987096;28;20053;-75
2023/03/03 02:21:34;;;;;;;156.90;41.47;;;2.10;99.90;;;;;;5003000;28;20053;-75
2023/03/03 02:24:07;;;;;;;120.90;38.73;;;2.10;99.90;;;;;;4962304;28;20057;-73
2023/03/03 02:26:37;;;;;;;148.43;40.40;;;2.10;99.90;;;;;;4986832;28;20361;-73
2023/03/03 02:29:04;;;;;;;196.45;47.15;;;2.10;99.90;;;;;;5001403;28;20359;-72
2023/03/03 02:31:31;;;;;;;185.17;45.63;;;2.10;99.90;;;;;;4991017;28;20098;-72
2023/03/03 02:33:57;;;;;;;174.55;44.15;;;2.20;99.90;;;;;;4999791;28;20061;-73
2023/03/03 02:36:27;;;;;;;329.52;62.22;;;2.20;99.90;;;;;;5004166;28;20049;-73
2023/03/03 02:38:58;;;;;;;145.77;42.95;;;2.10;99.90;;;;;;4987975;28;20132;-73
2023/03/03 02:41:52;;;;;;;186.10;45.97;;;2.20;99.90;;;;;;5018908;28;20053;-73
2023/03/03 02:44:20;;;;;;;96.83;35.50;;;2.20;99.90;;;;;;4999552;28;20489;-73
2023/03/03 02:46:48;;;;;;;327.20;58.10;;;2.20;99.90;;;;;;5005007;28;20049;-73
2023/03/03 02:49:19;;;;;;;184.38;43.92;;;2.20;99.90;;;;;;5006201;28;20210;-73
2023/03/03 02:51:45;;;;;;;262.92;53.80;;;2.20;99.90;;;;;;5020257;28;20057;-74
2023/03/03 02:54:12;;;;;;;153.02;43.40;;;2.20;99.90;;;;;;4989889;28;20099;-74
2023/03/03 02:56:38;;;;;;;189.93;45.13;;;2.20;99.90;;;;;;5002756;28;20632;-73
2023/03/03 02:59:04;;;;;;;227.52;46.88;;;2.20;99.90;;;;;;4990559;28;20057;-73
2023/03/03 03:01:35;;;;;;;469.20;74.22;;;2.20;99.90;;;;;;5003806;28;20152;-74
2023/03/03 03:04:06;;;;;;;249.93;49.60;;;2.20;99.90;;;;;;4989251;28;20581;-73
2023/03/03 03:06:32;;;;;;;167.85;42.08;;;2.20;99.90;;;;;;5005153;28;20367;-73
2023/03/03 03:08:59;;;;;;;248.60;51.97;;;2.20;99.90;;;;;;4991192;28;21140;-73
2023/03/03 03:11:25;;;;;;;165.73;43.10;;;2.20;99.90;;;;;;4975424;28;20508;-73
2023/03/03 03:13:51;;;;;;;218.30;47.53;;;2.20;99.90;;;;;;4999406;28;20467;-73
2023/03/03 03:16:18;;;;;;;182.27;45.90;;;2.20;99.90;;;;;;4995622;28;20068;-74
2023/03/03 03:18:44;;;;;;;151.43;41.23;;;2.30;99.90;;;;;;4984218;28;20144;-71
2023/03/03 03:21:11;;;;;;;210.33;47.07;;;2.30;99.90;;;;;;4997151;28;20060;-74
2023/03/03 03:23:39;;;;;;;271.67;52.77;;;2.30;99.90;;;;;;4997345;28;20041;-73
2023/03/03 03:26:09;;;;;;;242.27;52.13;;;2.20;99.90;;;;;;4994671;28;20802;-73
2023/03/03 03:28:35;;;;;;;282.02;52.75;;;2.30;99.90;;;;;;4996292;28;21368;-72
2023/03/03 03:31:01;;;;;;;262.20;49.90;;;2.30;99.90;;;;;;4979530;28;21675;-73
2023/03/03 03:33:27;;;;;;;127.35;36.72;;;2.30;99.90;;;;;;4965930;28;20128;-74
2023/03/03 03:35:57;;;;;;;140.90;38.92;;;2.20;99.90;;;;;;4976161;28;20620;-73
2023/03/03 03:38:28;;;;;;;144.23;39.25;;;2.20;99.90;;;;;;4985512;28;20057;-74
2023/03/03 03:40:58;;;;;;;238.00;50.30;;;2.20;99.90;;;;;;4986484;28;20057;-74
2023/03/03 03:43:24;;;;;;;171.60;43.93;;;2.30;99.90;;;;;;4984187;28;20054;-74
2023/03/03 03:45:51;;;;;;;425.20;70.68;;;2.20;99.90;;;;;;4970086;28;21187;-72
2023/03/03 03:48:18;;;;;;;230.60;49.40;;;2.30;99.90;;;;;;4996751;28;20057;-72
2023/03/03 03:50:49;;;;;;;312.10;56.03;;;2.30;99.90;;;;;;5000311;28;20054;-72
2023/03/03 03:53:16;;;;;;;162.05;42.45;;;2.30;99.90;;;;;;4998110;28;20195;-73
2023/03/03 03:55:45;;;;;;;452.98;73.57;;;2.30;99.90;;;;;;5018099;28;20602;-73
2023/03/03 03:58:13;;;;;;;388.00;69.97;;;2.30;99.90;;;;;;5000161;28;20097;-73
2023/03/03 04:00:41;;;;;;;200.80;45.50;;;2.30;99.90;;;;;;4982255;28;20272;-73
2023/03/03 04:03:07;;;;;;;236.83;45.27;;;2.30;99.90;;;;;;4998294;28;20037;-73
2023/03/03 04:05:33;;;;;;;165.73;37.03;;;2.30;99.90;;;;;;4970693;28;20053;-72
2023/03/03 04:07:59;;;;;;;261.10;48.08;;;2.30;99.90;;;;;;4986888;28;20506;-73
2023/03/03 04:10:25;;;;;;;214.45;41.13;;;2.30;99.90;;;;;;5018124;28;20128;-76
2023/03/03 04:12:51;;;;;;;295.63;53.13;;;2.20;99.90;;;;;;5000920;28;20553;-72
2023/03/03 04:15:17;;;;;;;191.05;39.00;;;2.20;99.90;;;;;;4986497;28;20053;-72
2023/03/03 04:17:43;;;;;;;327.10;53.07;;;2.20;99.90;;;;;;5016697;28;20057;-73
2023/03/03 04:20:12;;;;;;;190.17;39.33;;;2.20;99.90;;;;;;4985373;28;20176;-73
2023/03/03 04:22:38;;;;;;;108.20;31.73;;;2.20;99.90;;;;;;5000771;28;20090;-73
2023/03/03 04:25:06;;;;;;;228.27;41.78;;;2.10;99.90;;;;;;4985555;28;20360;-73
2023/03/03 04:27:36;;;;;;;144.00;33.13;;;2.10;99.90;;;;;;4998769;28;20642;-73
2023/03/03 04:30:04;;;;;;;364.15;54.45;;;2.10;99.90;;;;;;4983116;28;20073;-73
2023/03/03 04:32:32;;;;;;;105.53;31.77;;;2.10;99.90;;;;;;4999869;28;20081;-73
2023/03/03 04:34:58;;;;;;;207.57;39.77;;;2.10;99.90;;;;;;4998077;28;20177;-74
2023/03/03 04:37:27;;;;;;;110.63;29.80;;;2.10;99.90;;;;;;5016019;28;20053;-72
2023/03/03 04:39:53;;;;;;;186.33;38.13;;;2.10;99.90;;;;;;4983847;28;20593;-73
2023/03/03 04:42:22;;;;;;;119.23;33.47;;;2.10;99.90;;;;;;4984329;28;20041;-73
2023/03/03 04:44:48;;;;;;;148.77;33.17;;;2.10;99.90;;;;;;4985547;28;20504;-72
2023/03/03 04:47:17;;;;;;;167.87;34.67;;;2.10;99.90;;;;;;4996884;28;20045;-73
2023/03/03 04:49:43;;;;;;;143.13;31.45;;;2.10;99.90;;;;;;4970510;28;20097;-73
2023/03/03 04:52:12;;;;;;;188.83;34.30;;;2.10;99.90;;;;;;4997080;28;20068;-73
2023/03/03 04:54:38;;;;;;;148.00;31.17;;;2.10;99.90;;;;;;5015191;28;20053;-73
2023/03/03 04:57:04;;;;;;;157.50;35.47;;;2.00;99.90;;;;;;4983398;28;20717;-73
2023/03/03 04:59:30;;;;;;;158.63;32.17;;;2.10;99.90;;;;;;4982302;28;20056;-72
2023/03/03 05:01:56;;;;;;;145.43;31.83;;;2.10;99.90;;;;;;4982327;28;20072;-73
2023/03/03 05:04:21;;;;;;;131.93;30.95;;;2.00;99.90;;;;;;4992822;28;20140;-73
2023/03/03 05:06:50;;;;;;;164.93;33.33;;;2.00;99.90;;;;;;4998044;28;20058;-72
2023/03/03 05:09:16;;;;;;;151.27;33.27;;;2.00;99.90;;;;;;4984524;28;20045;-73
2023/03/03 05:11:42;;;;;;;122.57;29.90;;;2.00;99.90;;;;;;4999963;28;20060;-73
2023/03/03 05:14:09;;;;;;;186.30;34.70;;;2.00;99.90;;;;;;4981470;28;20050;-73
2023/03/03 05:16:35;;;;;;;153.97;32.17;;;2.00;99.90;;;;;;4984283;28;20719;-74
2023/03/03 05:19:01;;;;;;;158.70;31.10;;;2.00;99.90;;;;;;5003339;28;20037;-73
2023/03/03 05:21:27;;;;;;;109.15;29.30;;;2.00;99.90;;;;;;4968388;28;20049;-73
2023/03/03 05:23:52;;;;;;;153.10;30.70;;;2.00;99.90;;;;;;4987111;28;20076;-74
2023/03/03 05:26:18;;;;;;;123.57;27.63;;;2.00;99.90;;;;;;4983404;28;20778;-74
2023/03/03 05:28:44;;;;;;;110.60;27.23;;;2.00;99.90;;;;;;4983684;28;20522;-73
2023/03/03 05:31:10;;;;;;;142.47;30.80;;;2.00;99.90;;;;;;4994905;28;20041;-73
2023/03/03 05:33:37;;;;;;;159.50;32.57;;;2.00;99.90;;;;;;4985370;28;20052;-73
2023/03/03 05:36:03;;;;;;;150.68;29.77;;;2.10;99.90;;;;;;4998136;28;20132;-74
2023/03/03 05:38:28;;;;;;;136.83;30.97;;;2.00;99.90;;;;;;5005796;28;20057;-74
2023/03/03 05:40:55;;;;;;;327.43;43.73;;;2.00;99.90;;;;;;4987784;28;20061;-73
2023/03/03 05:43:21;;;;;;;406.98;53.60;;;1.90;99.90;;;;;;4990156;28;20052;-73
2023/03/03 05:45:46;;;;;;;305.85;42.97;;;2.00;99.90;;;;;;4990511;28;20058;-73
2023/03/03 05:48:12;;;;;;;266.30;39.57;;;2.00;99.90;;;;;;4988762;28;20400;-71
2023/03/03 05:50:39;;;;;;;286.10;39.83;;;2.10;99.90;;;;;;5021142;28;20538;-74
2023/03/03 05:53:04;;;;;;;393.73;49.33;;;2.00;99.90;;;;;;4987352;28;20061;-74
2023/03/03 05:55:30;;;;;;;402.60;51.47;;;2.00;99.90;;;;;;5003925;28;20260;-73
2023/03/03 05:57:56;;;;;;;268.08;37.50;;;2.00;99.90;;;;;;4988511;28;20665;-73
2023/03/03 06:00:22;;;;;;;286.60;38.90;;;2.00;99.90;;;;;;5006665;28;20108;-73
2023/03/03 06:02:48;;;;;;;85.93;23.63;;;2.00;99.90;;;;;;5006597;28;20107;-72
2023/03/03 06:05:14;;;;;;;203.77;34.13;;;2.00;99.90;;;;;;4976458;28;20157;-74
2023/03/03 06:07:40;;;;;;;252.95;34.58;;;2.00;99.90;;;;;;5006372;28;20045;-73
2023/03/03 06:10:06;;;;;;;295.45;39.45;;;2.00;99.90;;;;;;4992821;28;20139;-74
2023/03/03 06:12:32;;;;;;;300.85;42.08;;;2.00;99.90;;;;;;4987198;28;20064;-74
2023/03/03 06:14:58;;;;;;;393.30;51.60;;;2.10;99.90;;;;;;5005306;28;20053;-73
2023/03/03 06:17:24;;;;;;;376.77;50.93;;;2.00;99.90;;;;;;5020350;28;20927;-73
2023/03/03 06:19:50;;;;;;;217.10;30.33;;;2.10;99.90;;;;;;4989105;28;20048;-73
2023/03/03 06:22:16;;;;;;;359.13;46.53;;;2.00;99.90;;;;;;4986051;28;20099;-74
2023/03/03 06:24:42;;;;;;;317.13;41.73;;;2.00;99.90;;;;;;5002766;28;20046;-74
2023/03/03 06:27:09;;;;;;;363.27;50.13;;;2.10;99.90;;;;;;4968532;28;20049;-73
2023/03/03 06:29:34;;;;;;;248.77;27.20;;;2.10;99.90;;;;;;5003758;28;20681;-74
2023/03/03 06:32:00;;;;;;;76.20;17.80;;;2.10;99.90;;;;;;4987820;28;20053;-73
2023/03/03 06:34:26;;;;;;;111.10;21.38;;;2.00;99.90;;;;;;4986336;28;20041;-73
2023/03/03 06:36:52;;;;;;;289.67;40.42;;;2.00;99.90;;;;;;5006552;28;20112;-73
2023/03/03 06:39:18;;;;;;;323.80;43.57;;;2.00;99.90;;;;;;4990405;28;20144;-73
2023/03/03 06:41:44;;;;;;;380.87;49.70;;;2.00;99.90;;;;;;4990970;28;20151;-72
2023/03/03 06:44:10;;;;;;;99.27;20.57;;;2.00;99.90;;;;;;4959887;28;20065;-73
2023/03/03 06:46:36;;;;;;;320.07;42.03;;;2.00;99.90;;;;;;4990296;28;20214;-74
2023/03/03 06:49:02;;;;;;;330.13;46.17;;;2.00;99.90;;;;;;4987833;28;20092;-74
2023/03/03 06:51:38;;;;;;;243.38;32.92;;;2.00;99.90;;;;;;5018796;28;20120;-74
2023/03/03 06:54:16;;;;;;;340.97;44.80;;;2.00;99.90;;;;;;4986640;28;20057;-73
2023/03/03 06:56:43;;;;;;;263.07;42.43;;;1.90;99.90;;;;;;4986048;28;20062;-74
2023/03/03 06:59:19;;;;;;;319.47;43.97;;;2.00;99.90;;;;;;5003333;28;20057;-73
2023/03/03 07:01:48;;;;;;;323.07;43.87;;;2.00;99.90;;;;;;5018124;28;20057;-73
2023/03/03 07:04:34;;;;;;;119.33;23.20;;;2.00;99.90;;;;;;5001066;28;20046;-74
2023/03/03 07:07:12;;;;;;;247.77;37.63;;;2.00;99.90;;;;;;4984101;28;20093;-73
2023/03/03 07:09:38;;;;;;;251.10;38.57;;;2.00;99.90;;;;;;5003859;28;20053;-73
2023/03/03 07:12:12;;;;;;;197.63;32.13;;;2.00;99.90;;;;;;5001404;28;20115;-74
2023/03/03 07:14:44;;;;;;;231.13;32.93;;;2.10;99.90;;;;;;5002921;28;20119;-73
2023/03/03 07:17:16;;;;;;;111.93;21.77;;;2.00;99.90;;;;;;5002501;28;20206;-73
2023/03/03 07:19:43;;;;;;;78.50;20.00;;;2.00;99.90;;;;;;5002064;28;20151;-73
2023/03/03 07:22:20;;;;;;;114.50;22.13;;;2.00;99.90;;;;;;4989347;28;20057;-74
2023/03/03 07:24:49;;;;;;;78.20;18.90;;;2.00;99.90;;;;;;5000359;28;20459;-74
2023/03/03 07:27:18;;;;;;;193.10;31.13;;;2.00;99.90;;;;;;5001067;28;20053;-71
2023/03/03 07:29:47;;;;;;;179.23;30.87;;;2.00;99.90;;;;;;4987076;28;20160;-74
2023/03/03 07:32:36;;;;;;;215.63;33.20;;;2.00;99.90;;;;;;4990344;28;20053;-73
2023/03/03 07:35:46;;;;;;;250.07;42.27;;;2.00;99.90;;;;;;5001418;28;20049;-74
2023/03/03 07:38:30;;;;;;;223.73;28.43;;;2.00;99.90;;;;;;4965223;28;20713;-71
2023/03/03 07:41:01;;;;;;;164.27;24.97;;;2.00;99.90;;;;;;4962937;28;20053;-74
2023/03/03 07:43:33;;;;;;;96.80;20.83;;;2.00;99.90;;;;;;4986240;28;20405;-74
2023/03/03 07:46:14;;;;;;;73.97;18.00;;;2.10;99.90;;;;;;4985672;28;20052;-73
2023/03/03 07:48:41;;;;;;;118.00;21.57;;;2.10;99.90;;;;;;4999634;28;20049;-72
2023/03/03 07:51:28;;;;;;;582.53;67.47;;;2.10;99.90;;;;;;4962954;28;20135;-73
2023/03/03 07:54:13;;;;;;;141.10;28.17;;;2.20;99.90;;;;;;5001649;28;20355;-73
2023/03/03 07:56:39;;;;;;;65.33;18.03;;;2.20;99.90;;;;;;5002895;28;20045;-74
2023/03/03 07:59:23;;;;;;;18.00;13.70;;;2.20;99.90;;;;;;5001152;28;20053;-72
2023/03/03 08:01:59;;;;;;;53.20;18.27;;;2.20;99.90;;;;;;5001549;28;20080;-72
2023/03/03 08:04:42;;;;;;;57.27;18.60;;;2.20;99.90;;;;;;4959464;28;20124;-73
2023/03/03 08:07:16;;;;;;;115.07;32.27;;;2.20;99.90;;;;;;5002077;28;20405;-72
2023/03/03 08:09:46;;;;;;;140.10;34.53;;;2.20;99.90;;;;;;5014873;28;20057;-73
2023/03/03 08:12:15;;;;;;;30.70;15.05;;;2.20;99.90;;;;;;5004187;28;20575;-73
2023/03/03 08:14:41;;;;;;;175.70;34.47;;;2.30;99.90;;;;;;5001401;28;20064;-73
2023/03/03 08:17:25;;;;;;;184.23;34.53;;;2.30;99.90;;;;;;4973719;28;20054;-73
2023/03/03 08:19:52;;;;;;;137.47;22.93;;;2.30;99.90;;;;;;5003484;28;20072;-73
2023/03/03 08:22:29;;;;;;;37.83;15.80;;;2.40;99.90;;;;;;5018809;28;20057;-73
2023/03/03 08:24:55;;;;;;;89.43;25.27;;;2.40;99.90;;;;;;4990483;28;20656;-73
2023/03/03 08:27:21;;;;;;;69.17;20.03;;;2.40;99.90;;;;;;4973876;28;20041;-73
2023/03/03 08:29:48;;;;;;;151.77;30.03;;;2.40;99.90;;;;;;5005354;28;20154;-74
2023/03/03 08:32:15;;;;;;;138.03;27.87;;;2.50;99.90;;;;;;4990868;28;20089;-73
2023/03/03 08:34:40;;;;;;;83.80;17.95;;;2.50;99.90;;;;;;5005160;28;20068;-74
2023/03/03 08:37:06;;;;;;;128.83;24.00;;;2.60;99.90;;;;;;4988805;28;20140;-74
2023/03/03 08:39:32;;;;;;;92.68;22.23;;;2.70;99.90;;;;;;5002143;28;20045;-73
2023/03/03 08:41:58;;;;;;;74.20;22.30;;;2.70;99.90;;;;;;5008744;28;20148;-74
2023/03/03 08:44:25;;;;;;;70.97;23.27;;;2.80;99.90;;;;;;4990002;28;20139;-74
2023/03/03 08:46:51;;;;;;;66.67;21.67;;;2.80;99.90;;;;;;4993326;28;20092;-73
2023/03/03 08:49:17;;;;;;;102.73;25.70;;;2.90;99.90;;;;;;5007716;28;21850;-74
2023/03/03 08:51:43;;;;;;;87.67;25.50;;;3.00;99.90;;;;;;5006110;28;20053;-73
2023/03/03 08:54:09;;;;;;;58.20;22.55;;;3.10;99.90;;;;;;4962063;28;20052;-74
2023/03/03 08:56:35;;;;;;;33.22;20.30;;;3.00;99.90;;;;;;4988698;28;20139;-73
2023/03/03 08:59:01;;;;;;;42.15;20.80;;;3.00;99.90;;;;;;5003125;28;20514;-73
2023/03/03 09:01:26;;;;;;;49.47;23.83;;;3.00;99.90;;;;;;4961856;28;20049;-72
2023/03/03 09:03:52;;;;;;;38.67;20.53;;;3.00;99.90;;;;;;4992094;28;20049;-72
2023/03/03 09:06:18;;;;;;;36.58;19.48;;;3.00;99.90;;;;;;4985446;28;20106;-71
2023/03/03 09:08:44;;;;;;;46.45;21.85;;;3.10;99.90;;;;;;4973277;28;20337;-72
2023/03/03 09:11:14;;;;;;;32.25;17.88;;;3.00;99.90;;;;;;5004389;28;20309;-73
2023/03/03 09:13:40;;;;;;;46.15;20.63;;;3.00;99.90;;;;;;4992148;28;20044;-72
2023/03/03 09:16:15;;;;;;;54.67;24.13;;;3.10;99.90;;;;;;5005694;28;20089;-72
2023/03/03 09:18:42;;;;;;;24.63;19.13;;;3.10;99.90;;;;;;5007888;28;20106;-72
2023/03/03 09:21:31;;;;;;;25.73;18.35;;;3.10;99.90;;;;;;5003836;28;20167;-72
2023/03/03 09:24:00;;;;;;;19.70;14.77;;;3.10;99.90;;;;;;4990380;28;20049;-72
2023/03/03 09:26:30;;;;;;;30.27;18.35;;;3.20;99.90;;;;;;5003927;28;20876;-72
2023/03/03 09:29:17;;;;;;;21.33;16.85;;;3.20;99.90;;;;;;5006916;28;20044;-72
2023/03/03 09:31:44;;;;;;;24.10;18.30;;;3.30;99.90;;;;;;5002861;28;20057;-72
2023/03/03 09:34:33;;;;;;;18.85;15.55;;;3.30;99.90;;;;;;4988372;28;20435;-72
2023/03/03 09:36:59;;;;;;;25.93;17.60;;;3.30;99.90;;;;;;4982566;28;20777;-73
2023/03/03 09:39:28;;;;;;;19.90;16.75;;;3.40;99.90;;;;;;4987936;28;20585;-73
2023/03/03 09:42:14;;;;;;;15.98;14.30;;;3.50;99.90;;;;;;5006944;28;20072;-74
2023/03/03 09:44:58;;;;;;;15.97;14.07;;;3.50;99.90;;;;;;5006394;28;20061;-73
2023/03/03 09:47:38;;;;;;;17.15;14.98;;;3.50;99.90;;;;;;5006175;28;20045;-72
2023/03/03 09:50:16;;;;;;;17.52;15.55;;;3.60;99.90;;;;;;5006326;28;20202;-72
2023/03/03 09:52:52;;;;;;;19.02;15.15;;;3.60;99.90;;;;;;5005594;28;20053;-74
2023/03/03 09:55:56;;;;;;;18.75;15.48;;;3.70;99.90;;;;;;4989219;28;20176;-73
2023/03/03 09:58:30;;;;;;;20.38;15.18;;;3.70;99.90;;;;;;5005606;28;20045;-73
2023/03/03 10:01:12;;;;;;;19.33;15.43;;;3.80;99.90;;;;;;5003162;28;20053;-74
2023/03/03 10:04:04;;;;;;;15.93;13.95;;;3.90;99.90;;;;;;5004306;28;20289;-74
2023/03/03 10:06:44;;;;;;;13.00;11.68;;;3.90;99.90;;;;;;5004860;28;20325;-72
2023/03/03 10:09:50;;;;;;;13.70;11.45;;;4.00;99.90;;;;;;5002132;28;20045;-72
2023/03/03 10:12:24;;;;;;;14.95;13.40;;;4.10;99.90;;;;;;4975259;28;20060;-72
2023/03/03 10:14:56;;;;;;;13.23;11.82;;;4.10;99.90;;;;;;5003956;28;20061;-72
2023/03/03 10:17:41;;;;;;;14.13;12.45;;;4.10;99.90;;;;;;4989148;28;20111;-72
2023/03/03 10:20:35;;;;;;;13.93;11.35;;;4.20;99.90;;;;;;5001469;28;20060;-72
2023/03/03 10:23:19;;;;;;;13.65;12.13;;;4.30;99.90;;;;;;4997964;28;20057;-72
2023/03/03 10:25:48;;;;;;;13.80;12.40;;;4.30;99.90;;;;;;5003845;28;20144;-72
2023/03/03 10:29:15;;;;;;;16.33;12.05;;;4.40;99.90;;;;;;5000098;28;20492;-72
2023/03/03 10:31:46;;;;;;;12.80;10.70;;;4.50;99.90;;;;;;4947546;28;20060;-72
2023/03/03 10:34:52;;;;;;;11.15;9.55;;;4.50;99.90;;;;;;4963684;28;20069;-73
2023/03/03 10:37:36;;;;;;;12.18;10.90;;;4.60;99.90;;;;;;4893576;28;20134;-72
2023/03/03 10:40:16;;;;;;;13.85;10.82;;;4.70;99.90;;;;;;4923224;28;20094;-72
2023/03/03 10:43:06;;;;;;;10.27;8.80;;;4.80;99.90;;;;;;4973912;28;20088;-72
2023/03/03 10:46:09;;;;;;;12.00;9.68;;;4.80;99.90;;;;;;4999898;28;20041;-72
2023/03/03 10:48:59;;;;;;;10.45;8.90;;;4.90;99.90;;;;;;5000700;28;20073;-72
2023/03/03 10:51:37;;;;;;;;;;;5.00;99.90;;;;;;5018282;28;20061;-72
2023/03/03 10:54:11;;;;;;;10.88;9.35;;;5.00;99.90;;;;;;5002486;28;19921;-72
2023/03/03 10:57:00;;;;;;;12.18;9.65;;;5.10;99.90;;;;;;4985448;28;20068;-72
2023/03/03 10:59:51;;;;;;;13.50;9.65;;;5.20;99.90;;;;;;5002521;28;20470;-73
2023/03/03 11:02:17;;;;;;;13.30;8.68;;;5.30;99.90;;;;;;4986784;28;20547;-73
2023/03/03 11:05:15;;;;;;;9.57;8.35;;;5.30;99.90;;;;;;5000451;28;20051;-73
2023/03/03 11:07:47;;;;;;;11.95;7.80;;;5.40;99.90;;;;;;5001242;28;20125;-74
2023/03/03 11:10:30;;;;;;;10.32;8.07;;;5.40;99.90;;;;;;5004832;28;20144;-72
2023/03/03 11:13:10;;;;;;;9.40;8.00;;;5.50;99.90;;;;;;5005791;28;20460;-72
2023/03/03 11:15:48;;;;;;;9.85;6.80;;;5.50;99.90;;;;;;5003951;28;20139;-72
2023/03/03 11:18:27;;;;;;;9.82;7.85;;;5.60;99.90;;;;;;5003692;28;20061;-74
2023/03/03 11:21:29;;;;;;;12.15;7.43;;;5.70;99.90;;;;;;5003434;28;20219;-73
2023/03/03 11:24:09;;;;;;;9.90;6.75;;;5.80;99.90;;;;;;4946569;28;20054;-73
2023/03/03 11:26:53;;;;;;;8.70;6.20;;;5.90;99.90;;;;;;4980276;28;20076;-75
2023/03/03 11:29:57;;;;;;;9.77;6.03;;;6.00;99.90;;;;;;5004146;28;20436;-73
2023/03/03 11:32:46;;;;;;;10.65;6.00;;;6.10;99.90;;;;;;5003250;28;20057;-72
2023/03/03 11:35:21;;;;;;;9.30;5.15;;;6.10;99.90;;;;;;5005416;28;20508;-73
2023/03/03 11:38:05;;;;;;;6.93;4.35;;;6.30;99.90;;;;;;5002157;28;20056;-72
2023/03/03 11:41:23;;;;;;;8.18;4.30;;;6.40;99.90;;;;;;5019138;28;20169;-72
2023/03/03 11:43:57;;;;;;;5.28;3.63;;;6.60;99.90;;;;;;4998174;28;20139;-74
2023/03/03 11:46:50;;;;;;;6.68;3.30;;;6.70;99.90;;;;;;5004717;28;20053;-72
2023/03/03 11:49:48;;;;;;;5.95;3.28;;;6.80;99.90;;;;;;5002633;28;20232;-72
2023/03/03 11:52:30;;;;;;;4.43;2.78;;;6.90;99.90;;;;;;5000521;28;20609;-73
2023/03/03 11:55:05;;;;;;;4.05;2.80;;;7.00;99.90;;;;;;4987299;28;20091;-74
2023/03/03 11:58:04;;;;;;;5.78;2.78;;;7.10;99.90;;;;;;5001750;28;20360;-74
2023/03/03 12:01:02;;;;;;;7.35;3.08;;;7.10;99.90;;;;;;5006621;28;20099;-72
2023/03/03 12:03:34;;;;;;;4.05;1.90;;;7.10;99.90;;;;;;4980535;28;20085;-72
2023/03/03 12:06:18;;;;;;;3.63;1.30;;;7.20;99.90;;;;;;5004167;28;20441;-72
2023/03/03 12:08:50;;;;;;;3.80;1.40;;;7.30;99.90;;;;;;5005066;28;20111;-74
2023/03/03 12:11:27;;;;;;;4.97;1.10;;;7.30;99.90;;;;;;4988173;28;20951;-74
2023/03/03 12:13:56;;;;;;;4.97;1.20;;;7.30;99.90;;;;;;5006425;28;20049;-74
2023/03/03 12:16:39;;;;;;;5.15;2.17;;;7.40;99.90;;;;;;5024821;28;20061;-74
2023/03/03 12:19:42;;;;;;;4.25;1.80;;;7.30;99.90;;;;;;5009174;28;20053;-75
2023/03/03 12:22:14;;;;;;;4.97;2.00;;;7.30;99.90;;;;;;5010976;28;20169;-75
2023/03/03 12:24:49;;;;;;;5.47;2.30;;;7.30;99.90;;;;;;5009701;28;20140;-75
2023/03/03 12:27:36;;;;;;;3.40;2.10;;;7.30;99.90;;;;;;5008147;28;20067;-74
2023/03/03 12:30:20;;;;;;;5.85;2.00;;;7.30;99.90;;;;;;5010670;28;20064;-75
2023/03/03 12:32:59;;;;;;;6.38;2.65;;;7.30;99.90;;;;;;5005083;28;20055;-75
2023/03/03 12:35:31;;;;;;;3.80;1.80;;;7.30;99.90;;;;;;5009274;28;20050;-74
2023/03/03 12:38:05;;;;;;;6.15;1.95;;;7.40;99.90;;;;;;5009558;28;20060;-72
2023/03/03 12:40:36;;;;;;;8.32;4.53;;;7.30;99.90;;;;;;5010283;28;20041;-72
2023/03/03 12:43:23;;;;;;;4.72;1.50;;;7.40;99.90;;;;;;5008641;28;20176;-73
2023/03/03 12:46:04;;;;;;;7.07;2.60;;;7.40;99.90;;;;;;4993548;28;20053;-72
2023/03/03 12:48:42;;;;;;;9.18;4.80;;;7.40;99.90;;;;;;5009727;28;20084;-73
2023/03/03 12:51:52;;;;;;;6.60;2.35;;;7.50;99.90;;;;;;5011778;28;20053;-73
2023/03/03 12:54:28;;;;;;;4.22;1.95;;;7.60;99.90;;;;;;4950740;28;20122;-73
2023/03/03 12:56:55;;;;;;;5.55;1.50;;;7.60;99.90;;;;;;5010185;28;20057;-73
2023/03/03 13:00:15;;;;;;;6.35;1.92;;;7.60;99.90;;;;;;5009646;28;20428;-73
2023/03/03 13:02:51;;;;;;;4.35;1.58;;;7.70;99.90;;;;;;4938091;28;20069;-73
2023/03/03 13:05:26;;;;;;;4.85;1.65;;;7.70;99.90;;;;;;5001599;28;20660;-73
2023/03/03 13:08:18;;;;;;;4.78;2.03;;;7.70;99.90;;;;;;5009681;28;20488;-72